sensor_id;sensor_type;location;lat;lon;timestamp;P1;durP1;ratioP1;P2;durP2;ratioP2
66581;SDS011;53438;48.898;2.308;2023-11-22T00:00:06;11.77;;;5.70;;
66581;SDS011;53438;48.898;2.308;2023-11-22T00:02:33;11.65;;;6.05;;
66581;SDS011;53438;48.898;2.308;2023-11-22T00:04:58;12.83;;;6.93;;
66581;SDS011;53438;48.898;2.308;2023-11-22T00:07:23;13.83;;;7.40;;
66581;SDS011;53438;48.898;2.308;2023-11-22T00:09:49;14.13;;;6.70;;
66581;SDS011;53438;48.898;2.308;2023-11-22T00:12:14;12.93;;;6.63;;
66581;SDS011;53438;48.898;2.308;2023-11-22T00:14:42;15.47;;;7.87;;
66581;SDS011;53438;48.898;2.308;2023-11-22T00:17:08;17.48;;;8.05;;
66581;SDS011;53438;48.898;2.308;2023-11-22T00:19:33;15.47;;;8.10;;
66581;SDS011;53438;48.898;2.308;2023-11-22T00:21:59;16.43;;;8.83;;
66581;SDS011;53438;48.898;2.308;2023-11-22T00:24:24;16.67;;;8.37;;
66581;SDS011;53438;48.898;2.308;2023-11-22T00:26:49;18.77;;;9.30;;
66581;SDS011;53438;48.898;2.308;2023-11-22T00:29:15;18.38;;;9.13;;
66581;SDS011;53438;48.898;2.308;2023-11-22T00:31:40;19.15;;;8.68;;
66581;SDS011;53438;48.898;2.308;2023-11-22T00:34:05;18.23;;;8.60;;
66581;SDS011;53438;48.898;2.308;2023-11-22T00:36:31;18.67;;;8.70;;
66581;SDS011;53438;48.898;2.308;2023-11-22T00:38:57;17.13;;;8.20;;
66581;SDS011;53438;48.898;2.308;2023-11-22T00:41:22;17.80;;;7.83;;
66581;SDS011;53438;48.898;2.308;2023-11-22T00:43:47;19.90;;;9.07;;
66581;SDS011;53438;48.898;2.308;2023-11-22T00:46:13;15.73;;;8.43;;
66581;SDS011;53438;48.898;2.308;2023-11-22T00:48:38;14.80;;;7.87;;
66581;SDS011;53438;48.898;2.308;2023-11-22T00:51:03;16.73;;;8.03;;
66581;SDS011;53438;48.898;2.308;2023-11-22T00:53:34;15.55;;;8.25;;
66581;SDS011;53438;48.898;2.308;2023-11-22T00:56:01;14.38;;;7.93;;
66581;SDS011;53438;48.898;2.308;2023-11-22T00:58:26;15.90;;;9.20;;
66581;SDS011;53438;48.898;2.308;2023-11-22T04:02:30;14.32;;;8.35;;
66581;SDS011;53438;48.898;2.308;2023-11-22T04:04:55;15.43;;;8.23;;
66581;SDS011;53438;48.898;2.308;2023-11-22T04:07:21;15.17;;;8.20;;
66581;SDS011;53438;48.898;2.308;2023-11-22T04:09:46;13.35;;;7.60;;
66581;SDS011;53438;48.898;2.308;2023-11-22T04:12:13;13.73;;;8.43;;
66581;SDS011;53438;48.898;2.308;2023-11-22T04:14:40;14.38;;;7.70;;
66581;SDS011;53438;48.898;2.308;2023-11-22T04:17:05;16.10;;;7.90;;
66581;SDS011;53438;48.898;2.308;2023-11-22T04:19:31;14.50;;;8.43;;
66581;SDS011;53438;48.898;2.308;2023-11-22T04:21:56;14.33;;;8.20;;
66581;SDS011;53438;48.898;2.308;2023-11-22T04:24:21;13.63;;;7.97;;
66581;SDS011;53438;48.898;2.308;2023-11-22T04:26:47;15.77;;;9.03;;
66581;SDS011;53438;48.898;2.308;2023-11-22T04:29:12;16.63;;;9.30;;
66581;SDS011;53438;48.898;2.308;2023-11-22T04:31:37;14.27;;;7.40;;
66581;SDS011;53438;48.898;2.308;2023-11-22T04:34:02;14.57;;;8.83;;
66581;SDS011;53438;48.898;2.308;2023-11-22T04:36:28;14.37;;;8.57;;
66581;SDS011;53438;48.898;2.308;2023-11-22T04:38:54;15.25;;;8.60;;
66581;SDS011;53438;48.898;2.308;2023-11-22T04:41:19;14.50;;;8.33;;
66581;SDS011;53438;48.898;2.308;2023-11-22T04:43:45;15.83;;;8.33;;
66581;SDS011;53438;48.898;2.308;2023-11-22T04:46:10;15.97;;;8.33;;
66581;SDS011;53438;48.898;2.308;2023-11-22T04:48:35;15.93;;;8.00;;
66581;SDS011;53438;48.898;2.308;2023-11-22T04:51:02;15.80;;;8.65;;
66581;SDS011;53438;48.898;2.308;2023-11-22T04:53:27;14.90;;;8.23;;
66581;SDS011;53438;48.898;2.308;2023-11-22T04:55:52;17.37;;;7.83;;
66581;SDS011;53438;48.898;2.308;2023-11-22T04:58:18;14.45;;;8.82;;
66581;SDS011;53438;48.898;2.308;2023-11-22T05:00:43;19.23;;;9.50;;
66581;SDS011;53438;48.898;2.308;2023-11-22T05:03:10;17.10;;;8.87;;
66581;SDS011;53438;48.898;2.308;2023-11-22T05:05:35;14.95;;;7.80;;
66581;SDS011;53438;48.898;2.308;2023-11-22T05:08:01;16.20;;;8.80;;
66581;SDS011;53438;48.898;2.308;2023-11-22T05:10:27;12.32;;;6.80;;
66581;SDS011;53438;48.898;2.308;2023-11-22T05:12:53;15.73;;;8.07;;
66581;SDS011;53438;48.898;2.308;2023-11-22T05:15:18;15.03;;;9.43;;
66581;SDS011;53438;48.898;2.308;2023-11-22T05:17:44;15.73;;;9.43;;
66581;SDS011;53438;48.898;2.308;2023-11-22T05:20:10;16.30;;;8.40;;
66581;SDS011;53438;48.898;2.308;2023-11-22T05:22:36;16.23;;;8.67;;
66581;SDS011;53438;48.898;2.308;2023-11-22T05:25:02;14.90;;;8.93;;
66581;SDS011;53438;48.898;2.308;2023-11-22T05:27:28;14.53;;;8.40;;
66581;SDS011;53438;48.898;2.308;2023-11-22T05:29:53;15.98;;;8.32;;
66581;SDS011;53438;48.898;2.308;2023-11-22T05:32:19;13.27;;;7.43;;
66581;SDS011;53438;48.898;2.308;2023-11-22T05:34:44;14.77;;;8.83;;
66581;SDS011;53438;48.898;2.308;2023-11-22T05:37:09;15.07;;;8.20;;
66581;SDS011;53438;48.898;2.308;2023-11-22T05:39:35;13.73;;;7.83;;
66581;SDS011;53438;48.898;2.308;2023-11-22T05:42:01;14.80;;;7.30;;
66581;SDS011;53438;48.898;2.308;2023-11-22T05:44:28;14.77;;;7.68;;
66581;SDS011;53438;48.898;2.308;2023-11-22T05:46:53;12.53;;;6.33;;
66581;SDS011;53438;48.898;2.308;2023-11-22T05:49:19;12.95;;;7.43;;
66581;SDS011;53438;48.898;2.308;2023-11-22T05:51:44;12.93;;;7.33;;
66581;SDS011;53438;48.898;2.308;2023-11-22T05:54:10;17.00;;;8.53;;
66581;SDS011;53438;48.898;2.308;2023-11-22T05:56:37;15.80;;;7.65;;
66581;SDS011;53438;48.898;2.308;2023-11-22T05:59:03;13.27;;;7.73;;
66581;SDS011;53438;48.898;2.308;2023-11-22T06:01:28;14.53;;;8.03;;
66581;SDS011;53438;48.898;2.308;2023-11-22T06:03:55;14.98;;;9.15;;
66581;SDS011;53438;48.898;2.308;2023-11-22T06:06:20;15.40;;;8.05;;
66581;SDS011;53438;48.898;2.308;2023-11-22T06:08:46;15.88;;;9.13;;
66581;SDS011;53438;48.898;2.308;2023-11-22T06:11:12;15.05;;;8.15;;
66581;SDS011;53438;48.898;2.308;2023-11-22T06:13:38;17.50;;;7.90;;
66581;SDS011;53438;48.898;2.308;2023-11-22T06:16:04;15.75;;;8.23;;
66581;SDS011;53438;48.898;2.308;2023-11-22T06:18:29;16.87;;;8.10;;
66581;SDS011;53438;48.898;2.308;2023-11-22T06:20:55;16.10;;;7.87;;
66581;SDS011;53438;48.898;2.308;2023-11-22T06:23:21;13.95;;;8.70;;
66581;SDS011;53438;48.898;2.308;2023-11-22T06:25:47;15.67;;;9.13;;
66581;SDS011;53438;48.898;2.308;2023-11-22T06:28:12;14.60;;;8.50;;
66581;SDS011;53438;48.898;2.308;2023-11-22T06:30:37;15.47;;;9.37;;
66581;SDS011;53438;48.898;2.308;2023-11-22T06:33:03;16.97;;;9.47;;
66581;SDS011;53438;48.898;2.308;2023-11-22T06:35:28;16.02;;;8.82;;
66581;SDS011;53438;48.898;2.308;2023-11-22T06:37:54;16.30;;;9.27;;
66581;SDS011;53438;48.898;2.308;2023-11-22T06:40:19;17.77;;;10.07;;
66581;SDS011;53438;48.898;2.308;2023-11-22T06:42:47;16.77;;;8.95;;
66581;SDS011;53438;48.898;2.308;2023-11-22T06:45:13;15.57;;;8.87;;
66581;SDS011;53438;48.898;2.308;2023-11-22T06:47:39;19.87;;;10.40;;
66581;SDS011;53438;48.898;2.308;2023-11-22T06:50:07;16.02;;;8.63;;
66581;SDS011;53438;48.898;2.308;2023-11-22T06:52:37;17.67;;;11.27;;
66581;SDS011;53438;48.898;2.308;2023-11-22T06:55:04;20.42;;;10.45;;
66581;SDS011;53438;48.898;2.308;2023-11-22T06:57:30;18.13;;;10.57;;
66581;SDS011;53438;48.898;2.308;2023-11-22T06:59:56;20.80;;;10.40;;
66581;SDS011;53438;48.898;2.308;2023-11-22T07:02:21;18.77;;;9.07;;
66581;SDS011;53438;48.898;2.308;2023-11-22T07:04:47;19.00;;;10.27;;
66581;SDS011;53438;48.898;2.308;2023-11-22T07:07:12;19.13;;;10.77;;
66581;SDS011;53438;48.898;2.308;2023-11-22T07:09:41;17.50;;;10.00;;
66581;SDS011;53438;48.898;2.308;2023-11-22T07:12:07;21.38;;;11.07;;
66581;SDS011;53438;48.898;2.308;2023-11-22T07:14:32;20.13;;;11.40;;
66581;SDS011;53438;48.898;2.308;2023-11-22T07:16:58;24.27;;;10.57;;
66581;SDS011;53438;48.898;2.308;2023-11-22T07:19:24;20.42;;;11.05;;
66581;SDS011;53438;48.898;2.308;2023-11-22T07:21:50;18.90;;;10.87;;
66581;SDS011;53438;48.898;2.308;2023-11-22T07:24:15;23.13;;;12.70;;
66581;SDS011;53438;48.898;2.308;2023-11-22T07:26:41;22.43;;;12.43;;
66581;SDS011;53438;48.898;2.308;2023-11-22T07:29:07;22.65;;;12.57;;
66581;SDS011;53438;48.898;2.308;2023-11-22T07:31:33;23.92;;;12.50;;
66581;SDS011;53438;48.898;2.308;2023-11-22T07:33:59;25.73;;;14.00;;
66581;SDS011;53438;48.898;2.308;2023-11-22T07:36:27;26.92;;;13.43;;
66581;SDS011;53438;48.898;2.308;2023-11-22T07:38:53;27.50;;;12.38;;
66581;SDS011;53438;48.898;2.308;2023-11-22T07:41:19;33.33;;;12.87;;
66581;SDS011;53438;48.898;2.308;2023-11-22T07:43:44;24.70;;;12.98;;
66581;SDS011;53438;48.898;2.308;2023-11-22T07:46:09;26.70;;;14.27;;
66581;SDS011;53438;48.898;2.308;2023-11-22T07:48:38;27.57;;;13.20;;
66581;SDS011;53438;48.898;2.308;2023-11-22T07:51:05;30.08;;;13.07;;
66581;SDS011;53438;48.898;2.308;2023-11-22T07:53:31;26.33;;;14.48;;
66581;SDS011;53438;48.898;2.308;2023-11-22T07:55:59;27.13;;;13.68;;
66581;SDS011;53438;48.898;2.308;2023-11-22T07:58:29;26.13;;;12.77;;
66581;SDS011;53438;48.898;2.308;2023-11-22T08:00:58;26.45;;;12.35;;
66581;SDS011;53438;48.898;2.308;2023-11-22T08:03:24;24.48;;;13.35;;
66581;SDS011;53438;48.898;2.308;2023-11-22T08:05:51;26.02;;;13.70;;
66581;SDS011;53438;48.898;2.308;2023-11-22T08:08:20;25.92;;;12.93;;
66581;SDS011;53438;48.898;2.308;2023-11-22T08:10:46;21.93;;;11.83;;
66581;SDS011;53438;48.898;2.308;2023-11-22T08:13:13;26.17;;;12.80;;
66581;SDS011;53438;48.898;2.308;2023-11-22T08:15:40;28.20;;;14.77;;
66581;SDS011;53438;48.898;2.308;2023-11-22T08:18:05;27.20;;;13.80;;
66581;SDS011;53438;48.898;2.308;2023-11-22T08:20:31;29.50;;;13.40;;
66581;SDS011;53438;48.898;2.308;2023-11-22T08:22:56;27.83;;;13.63;;
66581;SDS011;53438;48.898;2.308;2023-11-22T08:25:22;28.20;;;14.13;;
66581;SDS011;53438;48.898;2.308;2023-11-22T08:27:47;29.90;;;14.83;;
66581;SDS011;53438;48.898;2.308;2023-11-22T08:30:13;26.02;;;13.57;;
66581;SDS011;53438;48.898;2.308;2023-11-22T08:32:40;27.38;;;14.73;;
66581;SDS011;53438;48.898;2.308;2023-11-22T08:35:12;25.30;;;13.40;;
66581;SDS011;53438;48.898;2.308;2023-11-22T08:37:39;25.60;;;14.23;;
66581;SDS011;53438;48.898;2.308;2023-11-22T08:40:06;23.95;;;13.07;;
66581;SDS011;53438;48.898;2.308;2023-11-22T08:42:33;24.55;;;13.18;;
66581;SDS011;53438;48.898;2.308;2023-11-22T08:45:00;24.23;;;13.23;;
66581;SDS011;53438;48.898;2.308;2023-11-22T08:47:27;26.33;;;12.97;;
66581;SDS011;53438;48.898;2.308;2023-11-22T08:49:52;26.80;;;13.53;;
66581;SDS011;53438;48.898;2.308;2023-11-22T08:52:18;23.98;;;13.15;;
66581;SDS011;53438;48.898;2.308;2023-11-22T08:54:44;26.75;;;13.07;;
66581;SDS011;53438;48.898;2.308;2023-11-22T08:57:10;26.87;;;14.40;;
66581;SDS011;53438;48.898;2.308;2023-11-22T08:59:36;25.80;;;13.10;;
66581;SDS011;53438;48.898;2.308;2023-11-22T09:02:05;25.00;;;12.60;;
66581;SDS011;53438;48.898;2.308;2023-11-22T09:04:32;28.98;;;13.55;;
66581;SDS011;53438;48.898;2.308;2023-11-22T09:06:58;24.23;;;12.37;;
66581;SDS011;53438;48.898;2.308;2023-11-22T09:09:23;26.97;;;12.50;;
66581;SDS011;53438;48.898;2.308;2023-11-22T09:11:59;24.25;;;13.10;;
66581;SDS011;53438;48.898;2.308;2023-11-22T09:14:24;25.27;;;13.05;;
66581;SDS011;53438;48.898;2.308;2023-11-22T09:16:50;22.47;;;11.47;;
66581;SDS011;53438;48.898;2.308;2023-11-22T09:19:23;24.58;;;13.25;;
66581;SDS011;53438;48.898;2.308;2023-11-22T09:21:49;24.10;;;12.02;;
66581;SDS011;53438;48.898;2.308;2023-11-22T09:24:14;24.05;;;11.63;;
66581;SDS011;53438;48.898;2.308;2023-11-22T09:26:40;24.00;;;11.63;;
66581;SDS011;53438;48.898;2.308;2023-11-22T09:29:06;25.50;;;11.95;;
66581;SDS011;53438;48.898;2.308;2023-11-22T09:31:32;24.47;;;12.57;;
66581;SDS011;53438;48.898;2.308;2023-11-22T09:33:57;23.13;;;12.30;;
66581;SDS011;53438;48.898;2.308;2023-11-22T09:36:22;22.87;;;12.53;;
66581;SDS011;53438;48.898;2.308;2023-11-22T09:38:52;22.80;;;12.10;;
66581;SDS011;53438;48.898;2.308;2023-11-22T09:41:17;22.77;;;11.67;;
66581;SDS011;53438;48.898;2.308;2023-11-22T09:43:43;21.23;;;10.87;;
66581;SDS011;53438;48.898;2.308;2023-11-22T09:46:11;21.27;;;10.48;;
66581;SDS011;53438;48.898;2.308;2023-11-22T09:48:38;21.52;;;10.85;;
66581;SDS011;53438;48.898;2.308;2023-11-22T09:53:36;21.13;;;11.43;;
66581;SDS011;53438;48.898;2.308;2023-11-22T09:56:07;22.55;;;11.73;;
66581;SDS011;53438;48.898;2.308;2023-11-22T09:58:35;23.55;;;12.10;;
66581;SDS011;53438;48.898;2.308;2023-11-22T10:01:04;24.33;;;12.30;;
66581;SDS011;53438;48.898;2.308;2023-11-22T10:03:30;25.70;;;12.40;;
66581;SDS011;53438;48.898;2.308;2023-11-22T10:05:56;25.50;;;12.87;;
66581;SDS011;53438;48.898;2.308;2023-11-22T10:08:24;21.88;;;11.88;;
66581;SDS011;53438;48.898;2.308;2023-11-22T10:10:50;20.27;;;10.70;;
66581;SDS011;53438;48.898;2.308;2023-11-22T10:13:16;26.57;;;12.47;;
66581;SDS011;53438;48.898;2.308;2023-11-22T10:15:45;27.38;;;12.95;;
66581;SDS011;53438;48.898;2.308;2023-11-22T10:18:10;24.00;;;12.73;;
66581;SDS011;53438;48.898;2.308;2023-11-22T10:20:42;25.27;;;11.83;;
66581;SDS011;53438;48.898;2.308;2023-11-22T10:23:11;24.48;;;12.00;;
66581;SDS011;53438;48.898;2.308;2023-11-22T10:25:48;21.00;;;11.00;;
66581;SDS011;53438;48.898;2.308;2023-11-22T10:28:21;21.92;;;11.68;;
66581;SDS011;53438;48.898;2.308;2023-11-22T10:30:50;22.13;;;11.05;;
66581;SDS011;53438;48.898;2.308;2023-11-22T10:33:19;21.63;;;11.50;;
66581;SDS011;53438;48.898;2.308;2023-11-22T10:35:49;21.48;;;11.00;;
66581;SDS011;53438;48.898;2.308;2023-11-22T10:38:19;24.00;;;10.90;;
66581;SDS011;53438;48.898;2.308;2023-11-22T10:40:45;22.92;;;11.23;;
66581;SDS011;53438;48.898;2.308;2023-11-22T10:43:12;23.45;;;10.68;;
66581;SDS011;53438;48.898;2.308;2023-11-22T10:45:38;21.37;;;11.40;;
66581;SDS011;53438;48.898;2.308;2023-11-22T10:48:06;19.73;;;10.25;;
66581;SDS011;53438;48.898;2.308;2023-11-22T10:50:34;20.17;;;9.48;;
66581;SDS011;53438;48.898;2.308;2023-11-22T10:52:59;20.83;;;10.37;;
66581;SDS011;53438;48.898;2.308;2023-11-22T10:55:28;21.17;;;10.10;;
66581;SDS011;53438;48.898;2.308;2023-11-22T10:57:58;21.83;;;10.95;;
66581;SDS011;53438;48.898;2.308;2023-11-22T11:00:27;24.00;;;11.23;;
66581;SDS011;53438;48.898;2.308;2023-11-22T11:03:01;19.63;;;11.03;;
66581;SDS011;53438;48.898;2.308;2023-11-22T11:05:32;18.70;;;10.52;;
66581;SDS011;53438;48.898;2.308;2023-11-22T11:10:45;15.30;;;8.07;;
66581;SDS011;53438;48.898;2.308;2023-11-22T11:13:11;16.02;;;9.15;;
66581;SDS011;53438;48.898;2.308;2023-11-22T11:15:38;18.10;;;9.67;;
66581;SDS011;53438;48.898;2.308;2023-11-22T11:18:06;17.70;;;10.05;;
66581;SDS011;53438;48.898;2.308;2023-11-22T11:20:55;15.02;;;8.45;;
66581;SDS011;53438;48.898;2.308;2023-11-22T11:23:20;15.32;;;7.60;;
66581;SDS011;53438;48.898;2.308;2023-11-22T11:25:48;14.40;;;7.85;;
66581;SDS011;53438;48.898;2.308;2023-11-22T11:28:14;17.20;;;8.40;;
66581;SDS011;53438;48.898;2.308;2023-11-22T11:33:06;14.00;;;7.80;;
66581;SDS011;53438;48.898;2.308;2023-11-22T11:35:42;13.35;;;7.22;;
66581;SDS011;53438;48.898;2.308;2023-11-22T11:38:11;14.25;;;7.38;;
66581;SDS011;53438;48.898;2.308;2023-11-22T11:40:41;13.63;;;6.95;;
66581;SDS011;53438;48.898;2.308;2023-11-22T11:43:07;12.68;;;6.63;;
66581;SDS011;53438;48.898;2.308;2023-11-22T11:45:37;11.70;;;6.03;;
66581;SDS011;53438;48.898;2.308;2023-11-22T11:48:11;12.00;;;6.25;;
66581;SDS011;53438;48.898;2.308;2023-11-22T11:50:40;11.55;;;6.32;;
66581;SDS011;53438;48.898;2.308;2023-11-22T11:53:06;13.80;;;7.27;;
66581;SDS011;53438;48.898;2.308;2023-11-22T11:55:31;12.40;;;6.40;;
66581;SDS011;53438;48.898;2.308;2023-11-22T11:57:57;13.30;;;6.17;;
66581;SDS011;53438;48.898;2.308;2023-11-22T12:00:29;12.48;;;6.22;;
66581;SDS011;53438;48.898;2.308;2023-11-22T12:02:54;11.05;;;6.00;;
66581;SDS011;53438;48.898;2.308;2023-11-22T12:05:20;8.53;;;5.20;;
66581;SDS011;53438;48.898;2.308;2023-11-22T12:07:45;9.43;;;5.27;;
66581;SDS011;53438;48.898;2.308;2023-11-22T12:10:11;9.48;;;4.65;;
66581;SDS011;53438;48.898;2.308;2023-11-22T12:12:36;9.77;;;4.53;;
66581;SDS011;53438;48.898;2.308;2023-11-22T12:15:02;9.90;;;5.30;;
66581;SDS011;53438;48.898;2.308;2023-11-22T12:17:28;10.85;;;5.57;;
66581;SDS011;53438;48.898;2.308;2023-11-22T12:20:08;9.77;;;4.63;;
66581;SDS011;53438;48.898;2.308;2023-11-22T12:22:35;8.38;;;4.25;;
66581;SDS011;53438;48.898;2.308;2023-11-22T12:25:01;6.78;;;3.88;;
66581;SDS011;53438;48.898;2.308;2023-11-22T12:27:26;8.77;;;4.45;;
66581;SDS011;53438;48.898;2.308;2023-11-22T12:29:51;9.80;;;4.27;;
66581;SDS011;53438;48.898;2.308;2023-11-22T12:32:16;7.60;;;3.73;;
66581;SDS011;53438;48.898;2.308;2023-11-22T12:34:49;7.50;;;3.97;;
66581;SDS011;53438;48.898;2.308;2023-11-22T12:37:17;10.47;;;4.17;;
66581;SDS011;53438;48.898;2.308;2023-11-22T12:39:46;12.35;;;4.88;;
66581;SDS011;53438;48.898;2.308;2023-11-22T12:42:13;8.93;;;4.32;;
66581;SDS011;53438;48.898;2.308;2023-11-22T12:44:50;5.47;;;3.30;;
66581;SDS011;53438;48.898;2.308;2023-11-22T12:47:32;7.07;;;3.97;;
66581;SDS011;53438;48.898;2.308;2023-11-22T12:50:00;8.65;;;4.22;;
66581;SDS011;53438;48.898;2.308;2023-11-22T12:52:26;7.18;;;4.35;;
66581;SDS011;53438;48.898;2.308;2023-11-22T12:54:52;7.70;;;3.97;;
66581;SDS011;53438;48.898;2.308;2023-11-22T12:57:18;5.80;;;3.53;;
66581;SDS011;53438;48.898;2.308;2023-11-22T12:59:43;9.93;;;5.47;;
66581;SDS011;53438;48.898;2.308;2023-11-22T13:02:09;6.13;;;3.63;;
66581;SDS011;53438;48.898;2.308;2023-11-22T13:04:34;6.57;;;3.58;;
66581;SDS011;53438;48.898;2.308;2023-11-22T13:06:59;8.00;;;3.80;;
66581;SDS011;53438;48.898;2.308;2023-11-22T13:09:25;6.23;;;3.77;;
66581;SDS011;53438;48.898;2.308;2023-11-22T13:11:51;6.30;;;3.40;;
66581;SDS011;53438;48.898;2.308;2023-11-22T13:14:17;6.87;;;3.73;;
66581;SDS011;53438;48.898;2.308;2023-11-22T13:16:43;5.70;;;3.40;;
66581;SDS011;53438;48.898;2.308;2023-11-22T13:19:10;7.97;;;3.92;;
66581;SDS011;53438;48.898;2.308;2023-11-22T13:21:36;8.67;;;3.90;;
66581;SDS011;53438;48.898;2.308;2023-11-22T13:24:02;5.60;;;3.00;;
66581;SDS011;53438;48.898;2.308;2023-11-22T13:26:28;6.00;;;3.50;;
66581;SDS011;53438;48.898;2.308;2023-11-22T13:28:54;5.80;;;4.20;;
66581;SDS011;53438;48.898;2.308;2023-11-22T13:31:20;7.90;;;4.47;;
66581;SDS011;53438;48.898;2.308;2023-11-22T13:33:46;6.13;;;3.63;;
66581;SDS011;53438;48.898;2.308;2023-11-22T13:36:12;6.30;;;4.03;;
66581;SDS011;53438;48.898;2.308;2023-11-22T13:38:39;6.88;;;3.58;;
66581;SDS011;53438;48.898;2.308;2023-11-22T13:41:05;6.60;;;3.75;;
66581;SDS011;53438;48.898;2.308;2023-11-22T13:43:30;6.63;;;3.63;;
66581;SDS011;53438;48.898;2.308;2023-11-22T13:45:58;6.85;;;3.67;;
66581;SDS011;53438;48.898;2.308;2023-11-22T13:48:23;6.13;;;3.20;;
66581;SDS011;53438;48.898;2.308;2023-11-22T13:50:49;5.45;;;3.25;;
66581;SDS011;53438;48.898;2.308;2023-11-22T13:53:14;5.87;;;3.30;;
66581;SDS011;53438;48.898;2.308;2023-11-22T13:55:40;6.40;;;3.07;;
66581;SDS011;53438;48.898;2.308;2023-11-22T13:58:05;6.00;;;3.10;;
66581;SDS011;53438;48.898;2.308;2023-11-22T14:00:31;5.27;;;2.90;;
66581;SDS011;53438;48.898;2.308;2023-11-22T14:03:00;5.57;;;2.87;;
66581;SDS011;53438;48.898;2.308;2023-11-22T14:05:33;5.45;;;2.70;;
66581;SDS011;53438;48.898;2.308;2023-11-22T14:08:01;6.38;;;2.75;;
66581;SDS011;53438;48.898;2.308;2023-11-22T14:10:27;5.25;;;3.15;;
66581;SDS011;53438;48.898;2.308;2023-11-22T14:12:53;3.70;;;2.40;;
66581;SDS011;53438;48.898;2.308;2023-11-22T14:15:19;4.88;;;2.35;;
66581;SDS011;53438;48.898;2.308;2023-11-22T14:17:47;5.30;;;2.50;;
66581;SDS011;53438;48.898;2.308;2023-11-22T14:20:15;6.97;;;3.00;;
66581;SDS011;53438;48.898;2.308;2023-11-22T14:22:41;3.47;;;2.13;;
66581;SDS011;53438;48.898;2.308;2023-11-22T14:25:10;5.18;;;2.88;;
66581;SDS011;53438;48.898;2.308;2023-11-22T14:27:39;4.33;;;2.17;;
66581;SDS011;53438;48.898;2.308;2023-11-22T14:30:05;6.75;;;3.20;;
66581;SDS011;53438;48.898;2.308;2023-11-22T14:32:33;5.97;;;3.20;;
66581;SDS011;53438;48.898;2.308;2023-11-22T14:35:00;4.22;;;2.25;;
66581;SDS011;53438;48.898;2.308;2023-11-22T14:37:29;7.35;;;3.15;;
66581;SDS011;53438;48.898;2.308;2023-11-22T14:39:55;6.10;;;2.87;;
66581;SDS011;53438;48.898;2.308;2023-11-22T14:42:21;7.05;;;2.97;;
66581;SDS011;53438;48.898;2.308;2023-11-22T14:44:47;7.07;;;3.43;;
66581;SDS011;53438;48.898;2.308;2023-11-22T14:47:13;6.88;;;3.50;;
66581;SDS011;53438;48.898;2.308;2023-11-22T14:49:44;6.90;;;4.05;;
66581;SDS011;53438;48.898;2.308;2023-11-22T14:52:09;11.03;;;4.87;;
66581;SDS011;53438;48.898;2.308;2023-11-22T14:54:35;8.73;;;4.10;;
66581;SDS011;53438;48.898;2.308;2023-11-22T14:57:03;6.88;;;3.70;;
66581;SDS011;53438;48.898;2.308;2023-11-22T14:59:28;6.70;;;3.50;;
66581;SDS011;53438;48.898;2.308;2023-11-22T15:01:56;10.93;;;5.18;;
66581;SDS011;53438;48.898;2.308;2023-11-22T15:04:22;8.87;;;4.20;;
66581;SDS011;53438;48.898;2.308;2023-11-22T15:06:49;10.18;;;6.20;;
66581;SDS011;53438;48.898;2.308;2023-11-22T15:09:14;9.33;;;4.97;;
66581;SDS011;53438;48.898;2.308;2023-11-22T15:11:41;8.10;;;3.93;;
66581;SDS011;53438;48.898;2.308;2023-11-22T15:14:07;7.15;;;3.92;;
66581;SDS011;53438;48.898;2.308;2023-11-22T15:16:33;8.83;;;4.13;;
66581;SDS011;53438;48.898;2.308;2023-11-22T15:18:58;5.78;;;3.65;;
66581;SDS011;53438;48.898;2.308;2023-11-22T15:21:28;7.13;;;4.10;;
66581;SDS011;53438;48.898;2.308;2023-11-22T15:23:54;6.82;;;3.90;;
66581;SDS011;53438;48.898;2.308;2023-11-22T15:26:21;6.90;;;3.67;;
66581;SDS011;53438;48.898;2.308;2023-11-22T15:28:47;6.85;;;4.05;;
66581;SDS011;53438;48.898;2.308;2023-11-22T15:31:15;9.13;;;3.87;;
66581;SDS011;53438;48.898;2.308;2023-11-22T15:33:41;6.18;;;3.55;;
66581;SDS011;53438;48.898;2.308;2023-11-22T15:36:07;6.77;;;3.40;;
66581;SDS011;53438;48.898;2.308;2023-11-22T15:38:33;6.65;;;3.85;;
66581;SDS011;53438;48.898;2.308;2023-11-22T15:41:00;8.43;;;3.92;;
66581;SDS011;53438;48.898;2.308;2023-11-22T15:43:27;7.37;;;4.23;;
66581;SDS011;53438;48.898;2.308;2023-11-22T15:45:54;6.43;;;4.30;;
66581;SDS011;53438;48.898;2.308;2023-11-22T15:48:20;6.45;;;4.07;;
66581;SDS011;53438;48.898;2.308;2023-11-22T15:50:45;6.60;;;3.83;;
66581;SDS011;53438;48.898;2.308;2023-11-22T15:53:11;6.93;;;4.10;;
66581;SDS011;53438;48.898;2.308;2023-11-22T15:55:38;9.43;;;5.28;;
66581;SDS011;53438;48.898;2.308;2023-11-22T15:58:04;9.65;;;5.30;;
66581;SDS011;53438;48.898;2.308;2023-11-22T16:00:29;5.93;;;3.70;;
66581;SDS011;53438;48.898;2.308;2023-11-22T16:02:55;11.40;;;4.00;;
66581;SDS011;53438;48.898;2.308;2023-11-22T16:05:20;8.13;;;3.95;;
66581;SDS011;53438;48.898;2.308;2023-11-22T16:07:48;11.50;;;4.78;;
66581;SDS011;53438;48.898;2.308;2023-11-22T16:10:15;9.02;;;4.13;;
66581;SDS011;53438;48.898;2.308;2023-11-22T16:12:42;8.35;;;4.15;;
66581;SDS011;53438;48.898;2.308;2023-11-22T16:15:07;7.03;;;3.77;;
66581;SDS011;53438;48.898;2.308;2023-11-22T16:17:33;7.10;;;4.57;;
66581;SDS011;53438;48.898;2.308;2023-11-22T16:20:01;9.15;;;4.57;;
66581;SDS011;53438;48.898;2.308;2023-11-22T16:22:39;7.57;;;4.05;;
66581;SDS011;53438;48.898;2.308;2023-11-22T16:25:09;8.00;;;4.07;;
66581;SDS011;53438;48.898;2.308;2023-11-22T16:27:35;7.25;;;4.35;;
66581;SDS011;53438;48.898;2.308;2023-11-22T16:30:01;8.63;;;4.32;;
66581;SDS011;53438;48.898;2.308;2023-11-22T16:32:28;7.30;;;4.27;;
66581;SDS011;53438;48.898;2.308;2023-11-22T16:34:53;12.80;;;5.10;;
66581;SDS011;53438;48.898;2.308;2023-11-22T16:37:19;8.85;;;5.28;;
66581;SDS011;53438;48.898;2.308;2023-11-22T16:39:44;11.77;;;6.33;;
66581;SDS011;53438;48.898;2.308;2023-11-22T16:42:10;11.53;;;6.33;;
66581;SDS011;53438;48.898;2.308;2023-11-22T16:44:35;13.20;;;5.93;;
66581;SDS011;53438;48.898;2.308;2023-11-22T16:47:06;8.93;;;6.07;;
66581;SDS011;53438;48.898;2.308;2023-11-22T16:49:32;12.27;;;6.97;;
66581;SDS011;53438;48.898;2.308;2023-11-22T16:51:57;10.47;;;5.63;;
66581;SDS011;53438;48.898;2.308;2023-11-22T16:54:22;13.60;;;6.67;;
66581;SDS011;53438;48.898;2.308;2023-11-22T16:56:48;12.50;;;7.10;;
66581;SDS011;53438;48.898;2.308;2023-11-22T16:59:14;12.88;;;6.82;;
66581;SDS011;53438;48.898;2.308;2023-11-22T17:01:40;13.20;;;6.35;;
66581;SDS011;53438;48.898;2.308;2023-11-22T17:04:05;14.10;;;6.90;;
66581;SDS011;53438;48.898;2.308;2023-11-22T17:06:31;15.43;;;6.60;;
66581;SDS011;53438;48.898;2.308;2023-11-22T17:08:56;25.65;;;12.27;;
66581;SDS011;53438;48.898;2.308;2023-11-22T17:11:22;13.45;;;7.65;;
66581;SDS011;53438;48.898;2.308;2023-11-22T17:13:47;17.53;;;6.00;;
66581;SDS011;53438;48.898;2.308;2023-11-22T17:16:13;13.87;;;7.00;;
66581;SDS011;53438;48.898;2.308;2023-11-22T17:18:38;11.23;;;6.13;;
66581;SDS011;53438;48.898;2.308;2023-11-22T17:21:04;12.38;;;7.07;;
66581;SDS011;53438;48.898;2.308;2023-11-22T17:23:30;12.80;;;6.28;;
66581;SDS011;53438;48.898;2.308;2023-11-22T17:25:57;13.07;;;5.73;;
66581;SDS011;53438;48.898;2.308;2023-11-22T17:28:22;10.23;;;5.97;;
66581;SDS011;53438;48.898;2.308;2023-11-22T17:30:50;12.85;;;5.97;;
66581;SDS011;53438;48.898;2.308;2023-11-22T17:33:15;9.57;;;5.70;;
66581;SDS011;53438;48.898;2.308;2023-11-22T17:35:41;11.70;;;6.05;;
66581;SDS011;53438;48.898;2.308;2023-11-22T17:38:06;10.10;;;5.90;;